Time;durP1;ratioP1;P1;durP2;ratioP2;P2;SDS_P1;SDS_P2;PMS_P1;PMS_P2;Temp;Humidity;BMP_temperature;BMP_pressure;BME280_temperature;BME280_humidity;BME280_pressure;Samples;Min_cycle;Max_cycle;Signal;HPM_P1;HPM_P2
2022/08/17 00:02:07;;;;;;;67.35;50.75;;;;;;;20.21;89.27;100983.19;10295240;28;20101;-79
2022/08/17 00:07:08;;;;;;;65.00;48.20;;;;;;;20.14;89.20;100983.38;10295258;28;20070;-79
2022/08/17 00:12:09;;;;;;;67.40;47.75;;;;;;;20.14;89.37;100971.56;10294057;28;20054;-79
2022/08/17 00:17:09;;;;;;;66.68;48.78;;;;;;;20.15;90.26;100967.72;10294013;28;20093;-79
2022/08/17 00:22:09;;;;;;;63.63;50.88;;;;;;;20.16;90.61;100955.63;10293243;28;20043;-78
2022/08/17 00:27:10;;;;;;;69.15;49.90;;;;;;;20.19;90.09;100955.09;10293244;28;20054;-79
2022/08/17 00:32:11;;;;;;;76.50;56.03;;;;;;;20.21;90.36;100963.94;10297003;28;20062;-79
2022/08/17 00:37:11;;;;;;;70.20;51.95;;;;;;;20.21;94.42;100955.69;10302437;28;20082;-79
2022/08/17 00:42:16;;;;;;;70.43;51.92;;;;;;;20.20;97.10;100946.59;10301463;28;20043;-78
2022/08/17 00:47:16;;;;;;;61.03;47.40;;;;;;;20.18;96.95;100948.78;10299905;28;20471;-79
2022/08/17 00:52:20;;;;;;;67.40;48.33;;;;;;;20.20;98.78;100946.59;10300267;28;20049;-79
2022/08/17 00:57:27;;;;;;;68.00;45.67;;;;;;;20.29;97.12;100930.44;10299797;28;20031;-79
2022/08/17 01:02:27;;;;;;;64.38;43.75;;;;;;;20.35;99.07;100942.31;10300100;28;20115;-77
2022/08/17 01:07:28;;;;;;;58.15;42.95;;;;;;;19.88;100.00;100941.06;10301337;28;20129;-77
2022/08/17 01:12:30;;;;;;;51.63;41.92;;;;;;;19.81;100.00;100947.84;10299470;28;20039;-78
2022/08/17 01:17:30;;;;;;;51.47;43.45;;;;;;;19.86;100.00;100951.47;10300328;28;20039;-78
2022/08/17 01:22:31;;;;;;;61.72;45.97;;;;;;;19.90;100.00;101032.31;10300860;28;20034;-78
2022/08/17 01:27:31;;;;;;;63.08;51.38;;;;;;;19.98;100.00;101055.78;10299457;28;20534;-78
2022/08/17 01:32:32;;;;;;;70.38;53.30;;;;;;;20.08;100.00;101061.41;10297856;28;20054;-79
2022/08/17 01:37:37;;;;;;;57.65;46.20;;;;;;;20.12;100.00;101091.94;10299581;28;20137;-78
2022/08/17 01:42:42;;;;;;;35.35;30.88;;;;;;;19.73;100.00;101086.50;10300415;28;20466;-75
2022/08/17 01:47:42;;;;;;;34.20;26.10;;;;;;;19.04;100.00;101087.63;10297530;28;20442;-74
2022/08/17 01:52:43;;;;;;;51.45;27.85;;;;;;;18.75;100.00;101092.34;10300189;28;20038;-74
2022/08/17 01:57:44;;;;;;;44.00;33.60;;;;;;;18.68;100.00;101088.91;10281166;28;20031;-75
2022/08/17 02:02:44;;;;;;;48.83;34.75;;;;;;;18.53;100.00;101091.38;10299581;28;20093;-77
2022/08/17 02:07:45;;;;;;;41.85;31.38;;;;;;;18.35;100.00;101049.38;10299264;28;20045;-76
2022/08/17 02:12:45;;;;;;;40.00;34.53;;;;;;;18.19;100.00;101054.78;10297379;28;20455;-79
2022/08/17 02:17:46;;;;;;;48.55;35.13;;;;;;;18.10;100.00;101035.19;10296478;28;20394;-75
2022/08/17 02:22:46;;;;;;;43.80;32.97;;;;;;;18.07;100.00;101030.19;10298345;28;20057;-76
2022/08/17 02:27:47;;;;;;;35.38;29.92;;;;;;;18.01;100.00;101012.81;10297232;28;20030;-73
2022/08/17 02:32:47;;;;;;;36.30;32.00;;;;;;;18.02;100.00;101019.94;10297529;28;20094;-74
2022/08/17 02:37:48;;;;;;;46.60;31.73;;;;;;;18.00;100.00;101013.06;10298445;28;20059;-74
2022/08/17 02:42:49;;;;;;;42.13;30.17;;;;;;;18.03;100.00;100993.41;10295628;28;20039;-74
2022/08/17 02:47:49;;;;;;;37.13;28.27;;;;;;;18.04;100.00;101004.09;10296458;28;20394;-74
2022/08/17 02:52:50;;;;;;;42.35;27.83;;;;;;;18.03;100.00;101023.53;10296023;28;20035;-74
2022/08/17 02:57:50;;;;;;;31.80;25.50;;;;;;;18.08;100.00;101027.19;10294634;28;20038;-75
2022/08/17 03:02:51;;;;;;;30.20;22.58;;;;;;;18.15;100.00;101032.53;10296384;28;20394;-74
2022/08/17 03:07:51;;;;;;;23.25;20.77;;;;;;;18.20;100.00;101029.88;10279100;28;20378;-74
2022/08/17 03:12:52;;;;;;;26.30;19.00;;;;;;;18.19;100.00;101032.84;10295507;28;20468;-74
2022/08/17 03:17:53;;;;;;;30.20;18.88;;;;;;;18.17;100.00;101022.16;10293728;28;20034;-75
2022/08/17 03:22:54;;;;;;;24.83;18.38;;;;;;;18.23;100.00;100999.25;10293998;28;20039;-75
2022/08/17 03:27:55;;;;;;;19.90;14.57;;;;;;;18.26;100.00;100990.53;10295092;28;20039;-74
2022/08/17 03:32:57;;;;;;;19.30;14.13;;;;;;;18.31;100.00;101008.97;10294389;28;20058;-74
2022/08/17 03:37:57;;;;;;;19.77;13.77;;;;;;;18.34;100.00;101006.56;10295944;28;20097;-74
2022/08/17 03:43:03;;;;;;;12.93;11.75;;;;;;;18.34;100.00;101003.81;10294525;28;20121;-74
2022/08/17 03:58:42;;;;;;;11.88;10.85;;;;;;;18.12;100.00;101008.34;10293792;28;20039;-74
2022/08/17 04:03:42;;;;;;;16.17;12.48;;;;;;;18.07;100.00;100991.81;10292961;28;20047;-74
2022/08/17 04:08:43;;;;;;;13.80;11.13;;;;;;;18.06;100.00;100984.66;10298298;28;20047;-74
2022/08/17 04:13:43;;;;;;;13.45;12.10;;;;;;;18.08;100.00;100986.09;10302338;28;20367;-74
2022/08/17 04:18:43;;;;;;;14.35;12.35;;;;;;;18.15;100.00;100976.88;10302058;28;20119;-74
2022/08/17 04:23:44;;;;;;;17.10;12.48;;;;;;;18.18;100.00;100981.88;10302398;28;20090;-74
2022/08/17 04:28:44;;;;;;;15.43;13.82;;;;;;;18.24;100.00;100998.16;10301603;28;20033;-74
2022/08/17 04:33:45;;;;;;;15.93;13.38;;;;;;;18.29;100.00;101000.19;10300855;28;20027;-74
2022/08/17 04:38:45;;;;;;;14.23;12.80;;;;;;;18.34;100.00;100990.13;10303108;28;20101;-74
2022/08/17 04:43:46;;;;;;;21.25;15.32;;;;;;;18.40;100.00;100998.44;10301132;28;20031;-74
2022/08/17 04:48:50;;;;;;;16.23;14.55;;;;;;;18.41;100.00;100986.38;10300457;28;20050;-75
2022/08/17 04:53:52;;;;;;;19.20;17.13;;;;;;;18.44;100.00;100970.28;10300784;28;20042;-73
2022/08/17 04:58:54;;;;;;;27.85;19.48;;;;;;;18.52;100.00;100961.63;10299422;28;20034;-74
2022/08/17 05:03:57;;;;;;;24.42;21.23;;;;;;;18.51;100.00;100954.50;10300442;28;20093;-74
2022/08/17 05:08:58;;;;;;;25.60;22.70;;;;;;;18.56;100.00;100961.97;10299035;28;20069;-74
2022/08/17 05:13:58;;;;;;;40.53;24.08;;;;;;;18.62;100.00;100969.22;10299484;28;20049;-73
2022/08/17 05:18:59;;;;;;;31.08;26.45;;;;;;;18.65;100.00;100985.16;10299255;28;20038;-73
2022/08/17 05:23:59;;;;;;;29.33;25.98;;;;;;;18.71;100.00;100981.44;10299496;28;20462;-73
2022/08/17 05:29:00;;;;;;;31.33;25.23;;;;;;;18.77;100.00;100999.66;10300491;28;20493;-73
2022/08/17 05:34:00;;;;;;;32.72;25.90;;;;;;;18.78;100.00;100998.56;10298661;28;20039;-73
2022/08/17 05:39:01;;;;;;;31.42;28.23;;;;;;;18.81;100.00;101006.31;10300948;28;20058;-73
2022/08/17 05:44:01;;;;;;;38.97;24.77;;;;;;;18.87;100.00;101029.19;10298879;28;20090;-74
2022/08/17 05:49:03;;;;;;;27.75;22.88;;;;;;;18.96;100.00;101026.84;10298822;28;20547;-73
2022/08/17 05:54:26;;;;;;;26.33;21.30;;;;;;;19.00;100.00;101017.88;10298546;28;20055;-73
2022/08/17 06:00:05;;;;;;;30.67;23.45;;;;;;;18.98;100.00;101030.16;10297700;28;20034;-74
2022/08/17 06:05:30;;;;;;;27.45;23.20;;;;;;;19.01;100.00;101041.47;10298365;28;20041;-73
2022/08/17 06:10:53;;;;;;;26.95;22.02;;;;;;;19.07;100.00;101016.88;10298380;28;20030;-73
2022/08/17 06:16:10;;;;;;;24.52;22.08;;;;;;;19.21;100.00;101024.50;10297996;28;20041;-72
2022/08/17 06:21:12;;;;;;;27.67;21.88;;;;;;;19.33;100.00;101023.56;10297231;28;20041;-73
2022/08/17 06:26:22;;;;;;;25.75;21.60;;;;;;;19.47;100.00;101041.34;10280853;28;20030;-74
2022/08/17 06:31:26;;;;;;;27.45;22.90;;;;;;;19.64;100.00;101047.66;10295560;28;20031;-74
2022/08/17 06:36:55;;;;;;;26.02;20.23;;;;;;;19.81;100.00;101044.84;10280027;28;20470;-73
2022/08/17 06:42:17;;;;;;;26.35;22.70;;;;;;;19.95;100.00;101045.31;10296954;28;20065;-72
2022/08/17 06:47:26;;;;;;;25.60;22.77;;;;;;;19.97;100.00;101041.22;10296315;28;20418;-77
2022/08/17 06:52:28;;;;;;;27.33;21.42;;;;;;;20.00;100.00;101045.34;10280287;28;20034;-76
2022/08/17 06:57:34;;;;;;;21.63;19.08;;;;;;;19.91;100.00;101049.63;10294819;28;20045;-78
2022/08/17 07:02:42;;;;;;;24.67;19.85;;;;;;;19.77;100.00;101056.59;10295251;28;20090;-75
2022/08/17 07:08:00;;;;;;;19.50;17.63;;;;;;;19.76;100.00;101063.19;10294905;28;20089;-75
2022/08/17 07:13:30;;;;;;;18.67;16.80;;;;;;;19.77;100.00;101065.69;10293662;28;20459;-75
2022/08/17 07:18:32;;;;;;;19.95;16.30;;;;;;;19.68;100.00;101073.50;10285587;28;20409;-76
2022/08/17 07:23:41;;;;;;;17.98;15.75;;;;;;;19.61;100.00;101078.34;10294490;28;20035;-75
2022/08/17 07:28:41;;;;;;;27.63;18.05;;;;;;;19.58;100.00;101084.34;10278121;28;20444;-76
2022/08/17 07:34:00;;;;;;;21.88;17.92;;;;;;;19.52;100.00;101099.91;10277517;28;20077;-78
2022/08/17 07:39:01;;;;;;;25.48;18.13;;;;;;;19.15;100.00;101096.88;10279386;28;20089;-71
2022/08/17 07:44:01;;;;;;;23.02;20.55;;;;;;;18.96;100.00;101089.97;10293221;28;20145;-70
2022/08/17 07:49:02;;;;;;;24.70;20.42;;;;;;;18.90;100.00;101086.31;10278500;28;20125;-72
2022/08/17 07:54:22;;;;;;;24.77;20.27;;;;;;;18.88;100.00;101098.59;10294624;28;20046;-73
2022/08/17 07:59:32;;;;;;;20.35;18.25;;;;;;;18.93;100.00;101098.72;10293620;28;20076;-71
2022/08/17 08:04:49;;;;;;;23.98;21.50;;;;;;;19.10;100.00;101101.44;10295719;28;20047;-75
2022/08/17 08:10:26;;;;;;;27.35;22.88;;;;;;;19.22;100.00;101092.06;10276552;28;20162;-72
2022/08/17 08:15:37;;;;;;;24.77;20.08;;;;;;;19.45;100.00;101098.44;10287171;28;20537;-72
2022/08/17 08:20:39;;;;;;;25.73;19.88;;;;;;;19.58;100.00;101091.75;10294110;28;20372;-72
2022/08/17 08:25:50;;;;;;;20.10;17.90;;;;;;;19.66;100.00;101092.19;10293145;28;20091;-73
2022/08/17 08:30:54;;;;;;;19.27;17.27;;;;;;;19.77;100.00;101100.56;10294726;28;20031;-79
2022/08/17 08:36:05;;;;;;;20.98;18.30;;;;;;;19.83;100.00;101108.63;10275722;28;20055;-77
2022/08/17 08:41:16;;;;;;;18.17;14.00;;;;;;;19.71;100.00;101116.16;10292681;28;20065;-79
2022/08/17 08:46:22;;;;;;;18.40;15.40;;;;;;;19.51;100.00;101144.13;10293681;28;20102;-79
2022/08/17 08:51:26;;;;;;;18.10;16.40;;;;;;;19.47;100.00;101181.44;10293568;28;20446;-79
2022/08/17 08:56:33;;;;;;;20.90;16.90;;;;;;;19.44;100.00;101196.47;10299856;28;20089;-70
2022/08/17 09:01:39;;;;;;;26.83;18.65;;;;;;;19.33;100.00;101191.88;10300210;28;20455;-73
2022/08/17 09:06:40;;;;;;;;;;;;;;;19.14;100.00;101179.47;10299616;28;20370;-72
2022/08/17 09:11:51;;;;;;;26.13;15.18;;;;;;;19.27;100.00;101171.78;10299905;28;19914;-74
2022/08/17 09:16:51;;;;;;;12.60;11.45;;;;;;;19.25;100.00;101184.06;10283269;28;20493;-74
2022/08/17 09:21:59;;;;;;;12.68;10.40;;;;;;;19.26;100.00;101191.22;10300105;28;20039;-76
2022/08/17 09:27:03;;;;;;;13.05;9.93;;;;;;;19.27;100.00;101188.25;10281941;28;20102;-75
2022/08/17 09:32:16;;;;;;;12.98;11.73;;;;;;;19.32;100.00;101192.97;10282776;28;20038;-75
2022/08/17 09:37:50;;;;;;;16.65;12.15;;;;;;;19.40;100.00;101197.22;10297698;28;20054;-74
2022/08/17 09:43:15;;;;;;;15.93;11.77;;;;;;;19.52;100.00;101186.97;10296349;28;20138;-75
2022/08/17 09:48:24;;;;;;;13.18;11.80;;;;;;;19.64;100.00;101174.03;10289328;28;20399;-75
2022/08/17 09:53:24;;;;;;;15.20;11.27;;;;;;;19.80;100.00;101180.59;10296639;28;20455;-75
2022/08/17 09:58:49;;;;;;;16.65;13.43;;;;;;;19.98;100.00;101185.81;10297568;28;20039;-75
2022/08/17 10:04:05;;;;;;;13.18;11.57;;;;;;;20.08;100.00;101178.78;10297497;28;20088;-80
2022/08/17 10:09:12;;;;;;;11.77;9.98;;;;;;;19.92;100.00;101175.00;10296273;28;20085;-79
2022/08/17 10:14:56;;;;;;;10.13;9.15;;;;;;;19.86;100.00;101184.25;10297185;28;20118;-82
2022/08/17 10:20:05;;;;;;;17.45;9.02;;;;;;;19.47;100.00;101174.00;10297374;28;20372;-84
2022/08/17 10:30:27;;;;;;;8.88;8.13;;;;;;;19.26;100.00;101177.50;10285068;28;20035;-79
2022/08/17 10:35:32;;;;;;;9.93;8.55;;;;;;;19.26;100.00;101175.56;10295098;28;20034;-80
2022/08/17 10:40:49;;;;;;;9.15;8.32;;;;;;;19.38;100.00;101171.94;10296898;28;20039;-81
2022/08/17 10:46:01;;;;;;;11.90;10.13;;;;;;;19.57;100.00;101173.34;10295964;28;20026;-82
2022/08/17 10:51:12;;;;;;;12.05;10.88;;;;;;;19.79;100.00;101178.94;10295996;28;20033;-78
2022/08/17 10:56:21;;;;;;;13.88;12.23;;;;;;;19.91;100.00;101181.56;10295090;28;20061;-80
2022/08/17 11:01:56;;;;;;;12.60;11.30;;;;;;;20.23;100.00;101172.63;10298363;28;20417;-81
2022/08/17 11:07:35;;;;;;;16.13;12.30;;;;;;;20.54;100.00;101176.63;10278948;28;20482;-79
2022/08/17 11:12:48;;;;;;;13.68;11.85;;;;;;;20.77;100.00;101186.53;10294101;28;20041;-78
2022/08/17 11:18:00;;;;;;;14.18;12.73;;;;;;;21.01;100.00;101181.56;10263102;28;20034;-81
2022/08/17 11:23:03;;;;;;;14.40;13.00;;;;;;;21.09;100.00;101181.06;10295485;28;20031;-81
2022/08/17 11:28:15;;;;;;;22.73;12.60;;;;;;;21.28;100.00;101176.88;10295101;28;20459;-80
2022/08/17 11:33:28;;;;;;;18.48;12.90;;;;;;;21.27;100.00;101199.16;10294272;28;20375;-84
2022/08/17 11:38:44;;;;;;;12.90;11.70;;;;;;;20.88;100.00;101208.41;10295263;28;20141;-78
2022/08/17 11:44:09;;;;;;;18.08;11.88;;;;;;;20.72;100.00;101219.50;10292874;28;20038;-78
2022/08/17 11:54:46;;;;;;;20.15;12.73;;;;;;;20.74;100.00;101229.19;10280157;28;20042;-75
2022/08/17 11:59:47;;;;;;;16.98;15.05;;;;;;;20.70;100.00;101224.44;10291897;28;20402;-75
2022/08/17 12:05:09;;;;;;;22.65;15.45;;;;;;;20.75;100.00;101219.00;10295255;28;20045;-74
2022/08/17 12:10:11;;;;;;;19.48;17.38;;;;;;;20.77;100.00;101209.41;10294009;28;20130;-73
2022/08/17 12:15:27;;;;;;;25.05;20.70;;;;;;;20.71;100.00;101213.19;10293303;28;20031;-73
2022/08/17 12:20:36;;;;;;;25.95;20.45;;;;;;;20.58;100.00;101208.03;10293737;28;20035;-75
2022/08/17 12:25:41;;;;;;;28.60;22.05;;;;;;;20.55;100.00;101197.56;10293052;28;20521;-72
2022/08/17 12:30:47;;;;;;;24.52;20.63;;;;;;;20.51;100.00;101194.47;10299846;28;20027;-71
2022/08/17 12:36:03;;;;;;;26.90;22.20;;;;;;;20.38;100.00;101189.34;10281835;28;20463;-72
2022/08/17 12:46:24;;;;;;;34.15;20.98;;;;;;;20.31;100.00;101183.22;10299665;28;20047;-74
2022/08/17 12:51:24;;;;;;;25.23;21.17;;;;;;;20.27;100.00;101184.81;10299606;28;20031;-73
2022/08/17 12:56:24;;;;;;;25.00;21.65;;;;;;;20.18;100.00;101188.00;10299310;28;20039;-72
2022/08/17 13:01:25;;;;;;;22.58;20.33;;;;;;;20.25;100.00;101186.97;10283729;28;20360;-72
2022/08/17 13:06:33;;;;;;;23.17;20.98;;;;;;;20.31;100.00;101188.72;10244457;28;20062;-74
2022/08/17 13:11:33;;;;;;;27.95;22.33;;;;;;;20.32;100.00;101182.09;10298984;28;20050;-72
2022/08/17 13:16:34;;;;;;;25.30;22.65;;;;;;;20.51;100.00;101188.13;10300144;28;20085;-73
2022/08/17 13:21:34;;;;;;;26.20;20.90;;;;;;;20.48;100.00;101166.63;10298022;28;20034;-73
2022/08/17 13:26:44;;;;;;;24.77;20.75;;;;;;;20.58;100.00;101175.88;10298413;28;20551;-74
2022/08/17 13:31:44;;;;;;;27.92;18.00;;;;;;;20.79;100.00;101176.09;10300549;28;20118;-74
2022/08/17 13:36:45;;;;;;;20.80;18.30;;;;;;;21.13;100.00;101169.28;10297834;28;20410;-74
2022/08/17 13:41:46;;;;;;;21.30;17.73;;;;;;;21.49;100.00;101169.59;10314510;28;20038;-73
2022/08/17 13:46:49;;;;;;;17.13;15.63;;;;;;;21.53;100.00;101173.50;10296710;28;20042;-73
2022/08/17 13:51:50;;;;;;;16.83;14.93;;;;;;;21.57;100.00;101168.31;10297711;28;20027;-74
2022/08/17 13:56:54;;;;;;;22.50;18.77;;;;;;;21.52;100.00;101174.59;10298044;28;20035;-72
2022/08/17 14:01:54;;;;;;;21.27;19.42;;;;;;;21.30;100.00;101174.66;10296930;28;20034;-73
2022/08/17 14:07:21;;;;;;;22.80;19.45;;;;;;;21.37;100.00;101168.97;10297041;28;20042;-72
2022/08/17 14:12:23;;;;;;;21.67;19.15;;;;;;;21.39;100.00;101175.03;10295076;28;20039;-71
2022/08/17 14:17:24;;;;;;;19.40;17.65;;;;;;;21.46;100.00;101167.38;10280887;28;20035;-71
2022/08/17 14:22:32;;;;;;;20.65;18.52;;;;;;;21.50;100.00;101163.00;10296146;28;20030;-73
2022/08/17 14:27:32;;;;;;;24.15;21.52;;;;;;;21.66;100.00;101163.09;10297790;28;20026;-74
2022/08/17 14:32:34;;;;;;;20.33;18.27;;;;;;;21.59;100.00;101158.66;10297578;28;20418;-75
2022/08/17 14:37:35;;;;;;;24.25;18.95;;;;;;;22.09;100.00;101159.25;10296383;28;20050;-75
2022/08/17 14:42:36;;;;;;;20.88;18.80;;;;;;;22.19;100.00;101164.84;10294969;28;20089;-74
2022/08/17 14:47:39;;;;;;;19.10;17.27;;;;;;;21.90;100.00;101167.13;10295903;28;20490;-74
2022/08/17 14:52:39;;;;;;;19.83;17.83;;;;;;;21.47;100.00;101171.78;10279907;28;20030;-74
2022/08/17 14:57:41;;;;;;;24.38;19.63;;;;;;;21.26;100.00;101176.28;10294829;28;20372;-75
2022/08/17 15:02:52;;;;;;;20.33;18.13;;;;;;;21.10;100.00;101178.06;10296977;28;20056;-75
2022/08/17 15:07:54;;;;;;;20.50;18.45;;;;;;;21.04;100.00;101189.28;10296762;28;20035;-75
2022/08/17 15:12:55;;;;;;;21.13;18.98;;;;;;;21.21;100.00;101183.66;10295487;28;20459;-75
2022/08/17 15:17:55;;;;;;;23.70;20.70;;;;;;;21.47;100.00;101193.81;10278244;28;20035;-76
2022/08/17 15:22:57;;;;;;;26.95;20.33;;;;;;;21.50;100.00;101186.97;10293928;28;20038;-76
2022/08/17 15:27:58;;;;;;;26.27;20.48;;;;;;;21.37;100.00;101188.25;10293697;28;20046;-76
2022/08/17 15:32:59;;;;;;;22.20;19.90;;;;;;;21.35;100.00;101194.03;10294415;28;20042;-76
2022/08/17 15:38:01;;;;;;;25.67;14.63;;;;;;;21.00;100.00;101200.00;10278587;28;20090;-76
2022/08/17 15:43:13;;;;;;;14.27;12.85;;;;;;;20.79;100.00;101192.63;10293875;28;20089;-76
2022/08/17 15:48:13;;;;;;;15.10;13.02;;;;;;;20.85;100.00;101197.09;10294915;28;20439;-77
2022/08/17 15:53:14;;;;;;;14.35;12.93;;;;;;;20.88;100.00;101191.88;10293663;28;20117;-76
2022/08/17 15:58:14;;;;;;;14.55;12.80;;;;;;;20.81;100.00;101190.44;10293905;28;20049;-77
2022/08/17 16:03:15;;;;;;;13.98;12.68;;;;;;;20.83;100.00;101188.25;10293761;28;20027;-77
2022/08/17 16:08:15;;;;;;;14.77;12.93;;;;;;;20.88;100.00;101197.41;10293010;28;20475;-77
2022/08/17 16:13:16;;;;;;;12.52;11.38;;;;;;;20.85;100.00;101197.91;10308787;28;20128;-77
2022/08/17 16:18:17;;;;;;;16.05;14.15;;;;;;;20.85;100.00;101192.41;10294476;28;20392;-77
2022/08/17 16:23:17;;;;;;;17.40;12.77;;;;;;;20.81;100.00;101191.28;10293706;28;20039;-77
2022/08/17 16:28:18;;;;;;;13.48;12.27;;;;;;;20.79;100.00;101190.69;10293420;28;20034;-77
2022/08/17 16:33:18;;;;;;;17.85;13.00;;;;;;;20.82;100.00;101198.44;10293518;28;20043;-77
2022/08/17 16:38:21;;;;;;;16.08;14.05;;;;;;;20.75;100.00;101197.81;10294075;28;20078;-77
2022/08/17 16:43:21;;;;;;;13.15;11.88;;;;;;;20.63;100.00;101197.09;10293346;28;20042;-77
2022/08/17 16:48:22;;;;;;;13.88;12.52;;;;;;;20.59;100.00;101207.81;10294365;28;20071;-77
2022/08/17 16:53:23;;;;;;;14.20;12.70;;;;;;;20.55;100.00;101217.66;10292402;28;20089;-77
2022/08/17 16:58:23;;;;;;;11.98;10.68;;;;;;;20.43;100.00;101209.50;10292890;28;20030;-78
2022/08/17 17:03:24;;;;;;;14.95;11.15;;;;;;;20.36;100.00;101210.78;10292495;28;20043;-77
2022/08/17 17:08:29;;;;;;;16.08;12.45;;;;;;;20.27;100.00;101215.91;10291750;28;20034;-76
2022/08/17 17:13:36;;;;;;;12.30;11.10;;;;;;;20.15;100.00;101210.50;10295437;28;20121;-75
2022/08/17 17:19:13;;;;;;;13.77;12.35;;;;;;;20.05;100.00;101215.03;10299333;28;20034;-74
2022/08/17 17:24:38;;;;;;;17.70;15.07;;;;;;;19.98;100.00;101227.03;10299586;28;20022;-75
2022/08/17 17:30:03;;;;;;;16.80;12.40;;;;;;;19.92;100.00;101227.22;10271590;28;20042;-75
2022/08/17 17:35:13;;;;;;;14.55;11.63;;;;;;;19.87;100.00;101227.13;10297389;28;20478;-74
2022/08/17 17:40:22;;;;;;;14.23;11.65;;;;;;;19.79;100.00;101224.81;10283329;28;20506;-73
2022/08/17 17:45:24;;;;;;;14.32;11.75;;;;;;;19.67;100.00;101233.97;10297665;28;20034;-72
2022/08/17 17:50:33;;;;;;;12.88;11.63;;;;;;;19.62;100.00;101230.25;10298636;28;20114;-73
2022/08/17 17:55:43;;;;;;;13.15;11.75;;;;;;;19.65;100.00;101235.28;10282725;28;20382;-75
2022/08/17 18:00:52;;;;;;;16.63;14.05;;;;;;;19.66;100.00;101236.97;10299238;28;20033;-73
2022/08/17 18:05:56;;;;;;;14.95;13.65;;;;;;;19.66;100.00;101242.47;10296817;28;20058;-73
2022/08/17 18:11:03;;;;;;;17.85;15.05;;;;;;;19.70;100.00;101249.13;10296486;28;20051;-73
2022/08/17 18:16:04;;;;;;;16.55;14.60;;;;;;;19.68;100.00;101243.03;10296480;28;20467;-73
2022/08/17 18:21:14;;;;;;;16.48;14.75;;;;;;;19.64;100.00;101250.94;10280526;28;20027;-73
2022/08/17 18:26:43;;;;;;;20.58;12.73;;;;;;;19.57;100.00;101250.25;10296166;28;20035;-73
2022/08/17 18:31:44;;;;;;;16.10;11.98;;;;;;;19.57;100.00;101254.91;10282849;28;20041;-73
2022/08/17 18:36:44;;;;;;;12.55;11.27;;;;;;;19.54;100.00;101253.50;10295756;28;20047;-73
2022/08/17 18:41:51;;;;;;;13.00;10.32;;;;;;;19.52;100.00;101253.72;10295610;28;20042;-81
2022/08/17 18:47:04;;;;;;;13.82;10.85;;;;;;;19.53;100.00;101262.84;10296335;28;20378;-79
2022/08/17 18:52:14;;;;;;;13.88;9.75;;;;;;;19.50;100.00;101253.16;10296384;28;20034;-80
2022/08/17 18:57:15;;;;;;;10.20;9.23;;;;;;;19.49;100.00;101250.66;10296369;28;20037;-80
2022/08/17 19:02:25;;;;;;;10.23;8.70;;;;;;;19.42;100.00;101247.25;10278851;28;20053;-80
2022/08/17 19:07:36;;;;;;;15.63;9.55;;;;;;;19.35;100.00;101258.38;10295060;28;20097;-80
2022/08/17 19:12:51;;;;;;;11.35;7.85;;;;;;;19.29;100.00;101260.19;10296140;28;20529;-80
2022/08/17 19:18:15;;;;;;;11.18;9.43;;;;;;;19.27;100.00;101264.28;10279272;28;20049;-79
2022/08/17 19:23:22;;;;;;;11.93;9.48;;;;;;;19.24;100.00;101284.84;10291509;28;20050;-79
2022/08/17 19:28:28;;;;;;;10.32;8.63;;;;;;;19.20;100.00;101285.56;10294047;28;20035;-82
2022/08/17 19:33:30;;;;;;;9.60;8.37;;;;;;;19.11;100.00;101271.38;10278290;28;20038;-81
2022/08/17 19:38:41;;;;;;;11.52;10.02;;;;;;;19.01;100.00;101279.44;10294848;28;20162;-81
2022/08/17 19:44:15;;;;;;;12.23;7.65;;;;;;;18.91;100.00;101288.28;10294094;28;20057;-82
2022/08/17 19:49:31;;;;;;;17.20;9.70;;;;;;;18.89;100.00;101301.44;10282837;28;20027;-80
2022/08/17 19:55:03;;;;;;;9.88;8.90;;;;;;;18.84;100.00;101282.13;10295635;28;20066;-82
2022/08/17 20:00:09;;;;;;;8.77;7.82;;;;;;;18.75;100.00;101284.41;10284958;28;20070;-79
2022/08/17 20:05:14;;;;;;;13.05;8.98;;;;;;;18.65;100.00;101286.06;10278885;28;20038;-81
2022/08/17 20:10:45;;;;;;;8.77;7.88;;;;;;;18.55;100.00;101284.78;10294015;28;20046;-80
2022/08/17 20:15:45;;;;;;;9.45;8.02;;;;;;;18.50;100.00;101287.41;10279447;28;20043;-81
2022/08/17 20:20:51;;;;;;;10.88;8.80;;;;;;;18.43;100.00;101297.66;10277046;28;20030;-80
2022/08/17 20:26:18;;;;;;;9.80;8.68;;;;;;;18.36;100.00;101289.56;10278829;28;20371;-79
2022/08/17 20:31:50;;;;;;;10.30;7.90;;;;;;;18.34;100.00;101299.94;10293930;28;20426;-80
2022/08/17 20:37:03;;;;;;;13.43;7.85;;;;;;;18.24;100.00;101318.88;10291430;28;20093;-80
2022/08/17 20:42:27;;;;;;;10.85;8.60;;;;;;;18.15;100.00;101334.03;10292114;28;20498;-81
2022/08/17 20:47:41;;;;;;;12.70;9.25;;;;;;;18.05;100.00;101331.88;10294154;28;20462;-80
2022/08/17 20:52:46;;;;;;;17.48;10.10;;;;;;;17.97;100.00;101331.41;10285123;28;20058;-80
2022/08/17 20:57:47;;;;;;;12.45;9.60;;;;;;;17.88;100.00;101333.63;10300362;28;20485;-80
2022/08/17 21:02:49;;;;;;;15.38;10.07;;;;;;;17.79;100.00;101329.56;10299634;28;20031;-80
2022/08/17 21:07:52;;;;;;;15.68;9.88;;;;;;;17.66;100.00;101327.84;10283269;28;20093;-81
2022/08/17 21:13:12;;;;;;;21.58;11.68;;;;;;;17.62;100.00;101326.66;10300316;28;20077;-83
2022/08/17 21:18:17;;;;;;;17.67;11.80;;;;;;;17.56;100.00;101322.94;10300989;28;20383;-80
2022/08/17 21:23:21;;;;;;;15.30;11.82;;;;;;;17.53;100.00;101326.13;10300592;28;20034;-79
2022/08/17 21:28:27;;;;;;;19.63;11.68;;;;;;;17.54;100.00;101319.59;10299893;28;20035;-79
2022/08/17 21:33:30;;;;;;;14.05;11.90;;;;;;;17.53;100.00;101312.44;10299080;28;20037;-79
2022/08/17 21:38:50;;;;;;;13.38;11.07;;;;;;;17.55;100.00;101307.59;10301365;28;20074;-79
2022/08/17 21:43:51;;;;;;;13.18;11.70;;;;;;;17.55;100.00;101317.66;10300214;28;20386;-80
2022/08/17 21:48:52;;;;;;;12.25;11.15;;;;;;;17.55;100.00;101314.94;10299123;28;20039;-79
2022/08/17 21:54:01;;;;;;;14.73;11.50;;;;;;;17.59;100.00;101325.22;10297534;28;20039;-72
2022/08/17 21:59:03;;;;;;;13.32;10.75;;;;;;;17.62;100.00;101321.16;10297165;28;20371;-73
2022/08/17 22:04:12;;;;;;;12.75;11.35;;;;;;;17.62;100.00;101338.44;10296478;28;20041;-73
2022/08/17 22:09:16;;;;;;;9.43;8.50;;;;;;;17.61;100.00;101336.78;10297983;28;20026;-73
2022/08/17 22:14:30;;;;;;;9.20;8.30;;;;;;;17.61;100.00;101346.88;10299551;28;20038;-73
2022/08/17 22:19:33;;;;;;;9.45;8.35;;;;;;;17.64;100.00;101357.34;10298099;28;20037;-74
2022/08/17 22:24:35;;;;;;;11.32;10.18;;;;;;;17.66;100.00;101363.44;10280798;28;20034;-74
2022/08/17 22:29:55;;;;;;;15.35;9.68;;;;;;;17.74;100.00;101373.22;10298264;28;20134;-74
2022/08/17 22:35:30;;;;;;;16.98;11.23;;;;;;;17.78;100.00;101366.25;10298278;28;20030;-74
2022/08/17 22:40:31;;;;;;;11.25;8.82;;;;;;;17.82;100.00;101371.03;10292406;28;20055;-74
2022/08/17 22:45:32;;;;;;;11.25;10.05;;;;;;;17.87;100.00;101371.16;10279562;28;20042;-74
2022/08/17 22:50:33;;;;;;;11.25;9.73;;;;;;;17.92;100.00;101378.69;10263692;28;20178;-73
2022/08/17 23:00:52;;;;;;;11.27;9.40;;;;;;;17.94;100.00;101356.53;10296873;28;20129;-74
2022/08/17 23:06:06;;;;;;;11.73;9.90;;;;;;;17.95;100.00;101358.19;10294842;28;20035;-74
2022/08/17 23:11:08;;;;;;;21.17;9.40;;;;;;;17.99;100.00;101356.63;10294032;28;20034;-74
2022/08/17 23:16:08;;;;;;;16.35;9.27;;;;;;;18.05;100.00;101361.19;10295516;28;20611;-74
2022/08/17 23:21:08;;;;;;;10.93;8.45;;;;;;;18.06;100.00;101352.75;10296080;28;20119;-74